Jump to content

peper

Members
  • Content Count

    1314
  • Joined

  • Last visited

Community Reputation

289 Отличная

About peper

  • Rank
    Гуру
  • Birthday 01/15/1983

Contact Methods

  • ICQ
    114455248

Дополнительная информация

  • Место в рейтинге
    1465
  • Конфигурация компьютера
    i7-3820/16GB/GTX1660

Profile Information

  • Gender
    Male
  • Location
    UOOO

Recent Profile Visitors

1657 profile views
  1. Не могу сообразить, что за город?
  2. А если пишут R88? UUDD 170800Z 27004MPS 230V300 CAVOK 31/17 Q1012 R88/CLRD60 NOSIG
  3. Ничего себе, у меня в детстве именно эта была!
  4. Конечно сможешь.
  5. peper

    Музыка

    Лады на американце не пришлось шлифовать по торцам? А то попадались новые American Deluxe с такой паршивой проблемой, я был в шоке.
  6. А что не устраивает в текущей версии?
  7. peper

    Музыка

    Что за модели? Какого года?
  8. peper

    Музыка

    На чем играешь? Не забросил?
×
×
  • Create New...